Airfield :
LOGIN :

Register | Disclaimer

   EN    FR    IT 

 










Legend :    VFR   Marginal VFR   IFR   Intensive IFR   Very Intensive IFR
Visi :
Ceiling :
>= 8 km
>= 3000ft
5 to 8 km
1000 to 3000 ft
1500m to 5 km
500 to 1000 ft
800 to 1500m
200 to 500 ft
< 800m
< 200 ft
Symbols :   Thunderstorms  Fog  Heavy snow  Heavy precipitations  Wind > 20 kt
SIGMETs :     Misc.  Thunderstorms  Icing  Turbulence  Mountain Waves  Volcanic Ashes







- Airport Elevation : 410 ft
- IATA code : AVB


LIPA - Aviano AB Pordenone

CURRENT METAR :
  • 211155Z 01002KT 9999 SCT070 BKN120 25/19 Q1011 RMK BKN VIS MIN 9999 WIND THR05 34002KT WIND THR23 01003KT A2988 BLU

EXPIRED METARs :
  • 211055Z 03006KT 9999 SCT080 BKN120 25/20 Q1011 RMK BKN VIS MIN 9999 WIND THR05 04006KT WIND THR23 03005KT A2987 BLU
  • 210955Z 27001KT 9999 SCT080 BKN100 25/19 Q1011 RMK BKN VIS MIN 9999 WIND THR05 22002KT WIND THR23 23001KT A2988 BLU

TAF TAF LIPA
Valid from the 21 at 12:00 until the 21 at 21:00 UTC


211100Z 2112/2121 26005KT 9999 SCT040 SCT080
TEMPO 2112/2115 7000 RA
PROB30
TEMPO 2115/2118 5000 TSRA FEW020CB SCT030
No reported NOTAMs for that airfield.
1 SIGMET reported for the Milano FIR (LIMM) :
 
Embedded thunderstorms
LIMM SIGMET 7 VALID 211235/211635 LIIP
LIMM MILANO FIR EMBD TS OBS NW OF LINE N4338 E01123 - N4517 E01306 TOP ABV FL400 STNR NC=



MET'MAP, your aeronautical weather chart ! - Copyright ORBIFLY December 2007 - Disclaimer

ORBIFLY MET'MAP TEAM :

Programming & Development : Alexandra Zaïnal
Concept & Development : Baudouin d'Aumeries
Co-Development & Prog : Marc-Olivier Méhu
Technical & hardware support : Manuel Goepfert

Contact : metmap@orbifly.com




SOURCES & CREDITS :

   NOAA